createdAt,value
2023-03-29T00:01:02.460Z,39.44
2023-03-29T00:03:30.850Z,39.37
2023-03-29T00:06:04.073Z,39.17
2023-03-29T00:08:32.351Z,38.99
2023-03-29T00:10:59.472Z,39.34
2023-03-29T00:13:27.479Z,38.86
2023-03-29T00:15:54.646Z,39.09
2023-03-29T00:18:21.431Z,39.06
2023-03-29T00:20:57.485Z,39.00
2023-03-29T00:23:25.163Z,38.80
2023-03-29T00:25:55.146Z,39.21
2023-03-29T00:28:22.202Z,38.80
2023-03-29T00:30:50.965Z,39.00
2023-03-29T00:33:20.629Z,38.80
2023-03-29T00:35:50.934Z,38.67
2023-03-29T00:38:17.996Z,38.92
2023-03-29T00:40:46.928Z,38.87
2023-03-29T00:43:14.617Z,38.97
2023-03-29T00:45:41.648Z,38.87
2023-03-29T00:48:13.119Z,39.25
2023-03-29T00:50:47.548Z,39.21
2023-03-29T00:53:28.540Z,39.44
2023-03-29T00:55:59.832Z,39.45
2023-03-29T00:58:39.537Z,39.54
2023-03-29T01:01:08.904Z,39.62
2023-03-29T01:03:47.198Z,39.57
2023-03-29T01:06:15.405Z,39.69
2023-03-29T01:08:45.652Z,39.39
2023-03-29T01:11:18.516Z,39.68
2023-03-29T01:13:49.352Z,39.82
2023-03-29T01:16:19.425Z,40.15
2023-03-29T01:18:49.012Z,40.48
2023-03-29T01:21:25.512Z,40.61
2023-03-29T01:23:58.384Z,40.33
2023-03-29T01:27:05.569Z,40.42
2023-03-29T01:29:38.773Z,40.07
2023-03-29T01:32:43.283Z,39.91
2023-03-29T01:35:43.813Z,40.32
2023-03-29T01:38:16.466Z,40.20
2023-03-29T01:40:43.607Z,40.07
2023-03-29T01:43:32.394Z,39.83
2023-03-29T01:46:07.276Z,39.43
2023-03-29T01:48:40.460Z,39.55
2023-03-29T01:51:23.806Z,39.66
2023-03-29T01:53:53.009Z,39.48
2023-03-29T01:56:24.998Z,39.27
2023-03-29T01:58:53.821Z,39.45
2023-03-29T02:01:23.248Z,39.13
2023-03-29T02:03:51.150Z,39.53
2023-03-29T02:06:21.041Z,39.47
2023-03-29T02:08:47.888Z,39.78
2023-03-29T02:11:14.850Z,39.65
2023-03-29T02:13:41.776Z,39.81
2023-03-29T02:16:12.721Z,39.91
2023-03-29T02:18:44.304Z,39.88
2023-03-29T02:21:21.364Z,39.87
2023-03-29T02:23:49.419Z,39.69
2023-03-29T02:26:17.917Z,39.26
2023-03-29T02:28:44.701Z,39.48
2023-03-29T02:31:30.570Z,39.09
2023-03-29T02:34:02.341Z,38.93
2023-03-29T02:37:00.211Z,38.91
2023-03-29T02:39:28.338Z,39.46
2023-03-29T02:41:55.121Z,39.07
2023-03-29T02:44:24.480Z,38.89
2023-03-29T02:46:51.586Z,39.10
2023-03-29T02:49:18.418Z,39.07
2023-03-29T02:51:45.226Z,38.90
2023-03-29T02:54:23.301Z,38.80
2023-03-29T02:56:55.501Z,38.98
2023-03-29T02:59:25.052Z,39.12
2023-03-29T03:01:52.733Z,39.30
2023-03-29T03:04:23.029Z,38.99
2023-03-29T03:06:49.741Z,39.32
2023-03-29T03:09:16.953Z,39.27
2023-03-29T03:11:43.734Z,39.42
2023-03-29T03:14:11.074Z,39.41
2023-03-29T03:16:38.005Z,39.46
2023-03-29T03:19:05.033Z,39.69
2023-03-29T03:21:31.886Z,40.07
2023-03-29T03:23:58.810Z,39.71
2023-03-29T03:26:25.589Z,39.67
2023-03-29T03:28:52.310Z,39.44
2023-03-29T03:31:19.904Z,39.66
2023-03-29T03:33:46.829Z,39.66
2023-03-29T03:36:14.120Z,39.46
2023-03-29T03:38:41.592Z,39.29
2023-03-29T03:41:09.264Z,39.32
2023-03-29T03:43:44.059Z,39.53
2023-03-29T03:46:10.860Z,39.46
2023-03-29T03:48:37.737Z,39.45
2023-03-29T03:51:05.005Z,39.26
2023-03-29T03:53:32.363Z,39.05
2023-03-29T03:55:59.103Z,39.29
2023-03-29T03:58:27.198Z,39.05
2023-03-29T04:00:55.000Z,39.18
2023-03-29T04:03:21.888Z,39.02
2023-03-29T04:05:51.954Z,39.14
2023-03-29T04:08:19.242Z,39.68
2023-03-29T04:10:53.482Z,39.41
2023-03-29T04:13:20.280Z,39.68
2023-03-29T04:15:49.955Z,39.36
2023-03-29T04:18:19.827Z,39.39
2023-03-29T04:20:49.355Z,39.03
2023-03-29T04:23:16.189Z,39.18
2023-03-29T04:25:43.319Z,39.31
2023-03-29T04:28:11.112Z,39.50
2023-03-29T04:30:38.085Z,39.16
2023-03-29T04:33:04.873Z,39.14
2023-03-29T04:35:31.881Z,39.09
2023-03-29T04:37:58.742Z,39.75
2023-03-29T04:40:25.470Z,39.46
2023-03-29T04:42:52.656Z,39.46
2023-03-29T04:45:19.629Z,39.38
2023-03-29T04:47:46.510Z,39.32
2023-03-29T04:50:13.996Z,39.42
2023-03-29T04:52:41.125Z,39.26
2023-03-29T04:55:08.339Z,39.25
2023-03-29T04:57:35.152Z,38.94
2023-03-29T05:00:02.158Z,38.70
2023-03-29T05:02:32.424Z,38.75
2023-03-29T05:04:59.422Z,38.87
2023-03-29T05:07:26.257Z,38.74
2023-03-29T05:09:53.563Z,38.82
2023-03-29T05:12:20.395Z,38.87
2023-03-29T05:14:47.320Z,38.35
2023-03-29T05:17:14.357Z,38.57
2023-03-29T05:19:41.487Z,38.51
2023-03-29T05:22:09.171Z,38.22
2023-03-29T05:24:36.307Z,38.40
2023-03-29T05:27:03.756Z,38.56
2023-03-29T05:29:33.018Z,38.65
2023-03-29T05:31:59.967Z,38.71
2023-03-29T05:34:27.106Z,38.38
2023-03-29T05:36:53.964Z,37.98
2023-03-29T05:39:21.222Z,38.10
2023-03-29T05:41:48.255Z,37.75
2023-03-29T05:44:14.986Z,37.96
2023-03-29T05:46:42.078Z,37.86
2023-03-29T05:49:08.917Z,37.70
2023-03-29T05:51:35.746Z,37.59
2023-03-29T05:54:02.468Z,37.12
2023-03-29T05:56:29.388Z,37.54
2023-03-29T05:58:57.133Z,37.08
2023-03-29T06:01:24.694Z,37.12
2023-03-29T06:03:52.350Z,37.15
2023-03-29T06:06:19.410Z,37.14
2023-03-29T06:08:46.570Z,36.42
2023-03-29T06:11:13.642Z,36.11
2023-03-29T06:13:41.580Z,35.70
2023-03-29T06:16:09.331Z,35.50
2023-03-29T06:18:36.403Z,35.73
2023-03-29T06:21:03.686Z,35.72
2023-03-29T06:23:30.847Z,35.83
2023-03-29T06:25:58.187Z,35.78
2023-03-29T06:28:25.034Z,36.12
2023-03-29T06:30:54.138Z,35.93
2023-03-29T06:33:21.221Z,36.35
2023-03-29T06:35:48.468Z,36.27
2023-03-29T06:38:15.718Z,36.13
2023-03-29T06:40:44.622Z,36.00
2023-03-29T06:43:11.345Z,35.67
2023-03-29T06:45:38.843Z,35.68
2023-03-29T06:48:06.460Z,35.68
2023-03-29T06:50:34.354Z,35.48
2023-03-29T06:53:01.924Z,35.33
2023-03-29T06:55:28.917Z,35.55
2023-03-29T06:57:55.659Z,35.20
2023-03-29T07:00:28.428Z,36.68
2023-03-29T07:02:56.482Z,36.92
2023-03-29T07:05:24.087Z,36.28
2023-03-29T07:07:57.250Z,36.04
2023-03-29T07:10:34.037Z,36.74
2023-03-29T07:13:01.132Z,36.44
2023-03-29T07:15:28.408Z,36.10
2023-03-29T07:17:56.024Z,36.38
2023-03-29T07:20:23.225Z,40.15
2023-03-29T07:22:51.574Z,41.74
2023-03-29T07:25:19.109Z,38.41
2023-03-29T07:27:46.500Z,36.40
2023-03-29T07:30:18.578Z,35.85
2023-03-29T07:32:46.649Z,35.54
2023-03-29T07:35:14.715Z,35.28
2023-03-29T07:37:43.032Z,35.24
2023-03-29T07:40:13.520Z,35.55
2023-03-29T07:42:40.428Z,35.28
2023-03-29T07:45:08.704Z,35.64
2023-03-29T07:47:35.664Z,35.68
2023-03-29T07:50:02.964Z,35.53
2023-03-29T07:52:30.194Z,35.51
2023-03-29T07:54:57.641Z,35.87
2023-03-29T07:57:25.135Z,36.08
2023-03-29T07:59:51.944Z,35.76
2023-03-29T08:02:19.807Z,35.86
2023-03-29T08:04:46.940Z,36.06
2023-03-29T08:07:16.375Z,35.62
2023-03-29T08:09:45.263Z,35.57
2023-03-29T08:12:12.037Z,35.18
2023-03-29T08:14:38.934Z,35.18
2023-03-29T08:17:06.081Z,34.81
2023-03-29T08:19:32.887Z,34.73
2023-03-29T08:22:00.982Z,34.81
2023-03-29T08:24:27.883Z,34.65
2023-03-29T08:26:54.661Z,34.49
2023-03-29T08:29:22.445Z,34.36
2023-03-29T08:31:49.592Z,34.63
2023-03-29T08:34:16.375Z,34.57
2023-03-29T08:36:43.199Z,34.41
2023-03-29T08:39:10.231Z,34.47
2023-03-29T08:41:41.991Z,34.75
2023-03-29T08:44:14.326Z,34.85
2023-03-29T08:46:48.047Z,35.08
2023-03-29T08:49:14.982Z,35.12
2023-03-29T08:51:45.512Z,35.40
2023-03-29T08:54:31.182Z,35.28
2023-03-29T08:57:18.701Z,35.25
2023-03-29T08:59:45.785Z,35.17
2023-03-29T09:02:18.134Z,34.73
2023-03-29T09:04:45.321Z,34.71
2023-03-29T09:07:12.071Z,34.52
2023-03-29T09:09:38.822Z,34.21
2023-03-29T09:12:09.020Z,33.86
2023-03-29T09:14:48.058Z,33.69
2023-03-29T09:17:42.880Z,33.30
2023-03-29T09:20:40.957Z,33.04
2023-03-29T09:23:18.235Z,33.17
2023-03-29T09:26:12.970Z,33.06
2023-03-29T09:28:49.070Z,32.89
2023-03-29T09:31:28.830Z,32.65
2023-03-29T09:34:31.808Z,32.26
2023-03-29T09:37:09.162Z,32.47
2023-03-29T09:39:36.990Z,31.85
2023-03-29T09:42:12.017Z,31.97
2023-03-29T09:44:52.963Z,31.55
2023-03-29T09:47:31.713Z,31.23
2023-03-29T09:50:30.351Z,31.32
2023-03-29T09:52:58.594Z,31.84
2023-03-29T09:55:28.011Z,31.80
2023-03-29T09:57:56.292Z,31.25
2023-03-29T10:00:23.145Z,31.13
2023-03-29T10:02:53.971Z,31.36
2023-03-29T10:05:22.122Z,31.55
2023-03-29T10:07:51.522Z,30.68
2023-03-29T10:10:27.505Z,30.43
2023-03-29T10:12:57.212Z,30.25
2023-03-29T10:15:29.625Z,29.87
2023-03-29T10:18:03.333Z,30.11
2023-03-29T10:20:30.253Z,29.67
2023-03-29T10:22:58.835Z,29.62
2023-03-29T10:25:30.212Z,29.41
2023-03-29T10:28:32.501Z,28.94
2023-03-29T10:31:01.012Z,29.13
2023-03-29T10:33:31.257Z,28.41
2023-03-29T10:35:58.044Z,27.85
2023-03-29T10:38:28.117Z,27.62
2023-03-29T10:40:57.087Z,27.65
2023-03-29T10:43:29.763Z,27.53
2023-03-29T10:45:57.678Z,27.33
2023-03-29T10:48:28.882Z,27.45
2023-03-29T10:50:58.451Z,27.26
2023-03-29T10:53:26.328Z,27.25
2023-03-29T10:56:17.702Z,27.73
2023-03-29T10:59:04.532Z,27.97
2023-03-29T11:02:13.331Z,28.61
2023-03-29T11:04:58.491Z,29.25
2023-03-29T11:07:30.062Z,29.64
2023-03-29T11:10:02.423Z,29.13
2023-03-29T11:12:57.837Z,29.61
2023-03-29T11:15:39.932Z,29.52
2023-03-29T11:18:41.990Z,29.94
2023-03-29T11:21:33.611Z,29.99
2023-03-29T11:24:15.686Z,30.33
2023-03-29T11:26:53.706Z,29.56
2023-03-29T11:29:29.642Z,30.01
2023-03-29T11:31:59.853Z,30.33
2023-03-29T11:34:45.670Z,30.54
2023-03-29T11:37:38.737Z,30.15
2023-03-29T11:40:20.533Z,29.67
2023-03-29T11:42:48.669Z,29.39
2023-03-29T11:45:35.676Z,29.14
2023-03-29T11:48:03.160Z,28.79
2023-03-29T11:50:36.022Z,28.80
2023-03-29T11:53:08.501Z,28.51
2023-03-29T11:55:37.205Z,28.32
2023-03-29T11:58:13.043Z,27.08
2023-03-29T12:00:44.961Z,27.44
2023-03-29T12:03:43.076Z,27.29
2023-03-29T12:06:28.136Z,27.27
2023-03-29T12:09:00.723Z,27.40
2023-03-29T12:11:39.353Z,27.51
2023-03-29T12:14:22.345Z,27.57
2023-03-29T12:16:58.527Z,27.36
2023-03-29T12:20:07.627Z,27.08
2023-03-29T12:22:34.435Z,26.66
2023-03-29T12:25:01.194Z,26.41
2023-03-29T12:27:40.221Z,26.64
2023-03-29T12:30:15.955Z,27.26
2023-03-29T12:33:10.583Z,26.99
2023-03-29T12:35:43.503Z,27.27
2023-03-29T12:38:19.407Z,27.32
2023-03-29T12:40:47.864Z,27.22
2023-03-29T12:43:26.583Z,27.41
2023-03-29T12:46:15.417Z,27.44
2023-03-29T12:48:42.589Z,26.61
2023-03-29T12:51:14.118Z,26.18
2023-03-29T12:53:41.782Z,26.06
2023-03-29T12:56:17.019Z,26.36
2023-03-29T12:58:52.296Z,26.27
2023-03-29T13:01:29.263Z,26.47
2023-03-29T13:04:01.988Z,26.45
2023-03-29T13:06:51.195Z,26.16
2023-03-29T13:09:31.093Z,26.23
2023-03-29T13:12:10.600Z,26.43
2023-03-29T13:14:38.201Z,26.74
2023-03-29T13:17:17.795Z,26.30
2023-03-29T13:19:48.052Z,25.98
2023-03-29T13:22:36.147Z,26.49
2023-03-29T13:25:24.668Z,27.54
2023-03-29T13:28:11.088Z,28.09
2023-03-29T13:30:59.971Z,28.84
2023-03-29T13:33:53.262Z,29.67
2023-03-29T13:37:09.863Z,29.93
2023-03-29T13:39:37.528Z,30.76
2023-03-29T13:42:29.089Z,31.38
2023-03-29T13:45:37.075Z,31.67
2023-03-29T13:48:25.501Z,32.37
2023-03-29T13:51:22.249Z,33.36
2023-03-29T13:53:55.395Z,33.85
2023-03-29T13:56:27.441Z,33.91
2023-03-29T13:59:20.517Z,34.45
2023-03-29T14:01:50.732Z,34.96
2023-03-29T14:04:23.259Z,34.97
2023-03-29T14:06:52.891Z,35.72
2023-03-29T14:09:20.601Z,36.39
2023-03-29T14:11:47.597Z,36.75
2023-03-29T14:14:14.906Z,37.98
2023-03-29T14:16:42.349Z,38.56
2023-03-29T14:19:13.841Z,38.79
2023-03-29T14:21:41.665Z,39.33
2023-03-29T14:24:12.973Z,39.60
2023-03-29T14:26:44.375Z,40.41
2023-03-29T14:29:12.153Z,40.58
2023-03-29T14:31:40.797Z,41.19
2023-03-29T14:34:17.561Z,41.92
2023-03-29T14:36:45.657Z,42.00
2023-03-29T14:39:20.474Z,42.61
2023-03-29T14:41:52.844Z,43.21
2023-03-29T14:44:21.271Z,43.53
2023-03-29T14:46:48.240Z,44.00
2023-03-29T14:49:19.748Z,44.23
2023-03-29T14:51:46.912Z,44.82
2023-03-29T14:54:19.602Z,45.50
2023-03-29T14:56:48.506Z,45.55
2023-03-29T14:59:39.099Z,45.48
2023-03-29T15:02:22.146Z,46.31
2023-03-29T15:04:55.500Z,46.80
2023-03-29T15:07:28.546Z,46.83
2023-03-29T15:09:56.297Z,47.43
2023-03-29T15:12:23.135Z,47.75
2023-03-29T15:14:53.053Z,48.11
2023-03-29T15:17:39.425Z,48.36
2023-03-29T15:20:16.902Z,48.81
2023-03-29T15:23:19.054Z,49.15
2023-03-29T15:25:57.154Z,49.71
2023-03-29T15:28:27.145Z,49.68
2023-03-29T15:31:07.254Z,50.32
2023-03-29T15:33:36.812Z,50.77
2023-03-29T15:36:04.599Z,50.60
2023-03-29T15:38:43.374Z,51.08
2023-03-29T15:41:11.093Z,50.73
2023-03-29T15:43:38.034Z,51.01
2023-03-29T15:46:05.174Z,51.41
2023-03-29T15:48:33.965Z,51.81
2023-03-29T15:51:05.752Z,51.85
2023-03-29T15:53:33.380Z,52.27
2023-03-29T15:56:02.122Z,52.38
2023-03-29T15:58:32.724Z,52.99
2023-03-29T16:01:11.546Z,53.39
2023-03-29T16:03:39.117Z,53.46
2023-03-29T16:06:06.417Z,53.88
2023-03-29T16:08:33.233Z,53.75
2023-03-29T16:10:59.979Z,53.65
2023-03-29T16:13:26.759Z,54.38
2023-03-29T16:15:53.640Z,54.28
2023-03-29T16:18:20.359Z,54.19
2023-03-29T16:20:47.242Z,54.20
2023-03-29T16:23:14.210Z,53.99
2023-03-29T16:25:41.214Z,54.08
2023-03-29T16:28:08.724Z,54.03
2023-03-29T16:30:36.101Z,54.25
2023-03-29T16:33:08.430Z,54.42
2023-03-29T16:35:38.072Z,54.46
2023-03-29T16:38:04.951Z,54.29
2023-03-29T16:40:31.792Z,54.32
2023-03-29T16:43:00.234Z,54.53
2023-03-29T16:45:27.375Z,54.54
2023-03-29T16:47:54.708Z,54.77
2023-03-29T16:50:22.185Z,54.80
2023-03-29T16:52:49.029Z,55.17
2023-03-29T16:55:19.083Z,55.26
2023-03-29T16:57:46.960Z,55.54
2023-03-29T17:00:16.035Z,55.89
2023-03-29T17:02:46.235Z,55.98
2023-03-29T17:05:13.088Z,55.80
2023-03-29T17:07:39.893Z,56.10
2023-03-29T17:10:08.307Z,56.47
2023-03-29T17:12:35.556Z,56.83
2023-03-29T17:15:03.039Z,57.26
2023-03-29T17:17:29.934Z,57.02
2023-03-29T17:19:56.869Z,57.52
2023-03-29T17:22:24.177Z,57.76
2023-03-29T17:24:51.003Z,58.21
2023-03-29T17:27:18.288Z,58.63
2023-03-29T17:29:45.000Z,59.25
2023-03-29T17:32:11.747Z,59.31
2023-03-29T17:34:39.156Z,59.69
2023-03-29T17:37:05.963Z,59.55
2023-03-29T17:39:35.126Z,59.89
2023-03-29T17:42:02.019Z,60.19
2023-03-29T17:44:28.919Z,60.49
2023-03-29T17:46:55.788Z,60.51
2023-03-29T17:49:22.846Z,61.01
2023-03-29T17:51:49.686Z,60.72
2023-03-29T17:54:16.635Z,61.02
2023-03-29T17:56:43.510Z,60.72
2023-03-29T17:59:10.262Z,61.38
2023-03-29T18:01:39.074Z,61.45
2023-03-29T18:04:06.552Z,61.47
2023-03-29T18:06:33.302Z,61.95
2023-03-29T18:09:01.715Z,62.05
2023-03-29T18:11:29.284Z,61.87
2023-03-29T18:13:58.748Z,62.24
2023-03-29T18:16:25.825Z,62.27
2023-03-29T18:18:52.799Z,62.24
2023-03-29T18:21:19.692Z,62.38
2023-03-29T18:23:47.295Z,62.90
2023-03-29T18:26:15.003Z,62.64
2023-03-29T18:28:41.759Z,63.08
2023-03-29T18:31:08.542Z,63.53
2023-03-29T18:33:35.628Z,63.50
2023-03-29T18:36:10.808Z,63.98
2023-03-29T18:38:40.846Z,63.68
2023-03-29T18:41:09.397Z,63.78
2023-03-29T18:43:37.107Z,64.03
2023-03-29T18:46:04.094Z,63.97
2023-03-29T18:48:31.335Z,64.37
2023-03-29T18:50:58.296Z,64.73
2023-03-29T18:53:25.293Z,64.39
2023-03-29T18:55:52.023Z,64.58
2023-03-29T18:58:20.446Z,64.37
2023-03-29T19:00:47.338Z,64.69
2023-03-29T19:03:14.275Z,64.63
2023-03-29T19:05:41.169Z,65.08
2023-03-29T19:08:09.180Z,64.95
2023-03-29T19:10:36.849Z,65.04
2023-03-29T19:13:04.259Z,65.10
2023-03-29T19:15:32.518Z,65.46
2023-03-29T19:17:59.448Z,65.62
2023-03-29T19:20:26.675Z,65.77
2023-03-29T19:22:53.858Z,65.75
2023-03-29T19:25:20.849Z,65.96
2023-03-29T19:27:48.014Z,66.00
2023-03-29T19:30:15.170Z,66.13
2023-03-29T19:32:41.935Z,66.23
2023-03-29T19:35:09.822Z,66.35
2023-03-29T19:37:36.764Z,66.16
2023-03-29T19:40:06.550Z,66.18
2023-03-29T19:42:36.176Z,67.11
2023-03-29T19:45:04.216Z,67.05
2023-03-29T19:47:31.241Z,67.21
2023-03-29T19:50:01.242Z,67.48
2023-03-29T19:52:28.441Z,67.21
2023-03-29T19:54:56.473Z,67.49
2023-03-29T19:57:23.982Z,67.96
2023-03-29T19:59:53.347Z,67.82
2023-03-29T20:02:20.076Z,67.33
2023-03-29T20:04:46.845Z,67.54
2023-03-29T20:07:13.904Z,67.92
2023-03-29T20:09:43.931Z,67.90
2023-03-29T20:12:12.121Z,67.80
2023-03-29T20:14:40.495Z,67.79
2023-03-29T20:17:07.842Z,67.75
2023-03-29T20:19:36.740Z,68.01
2023-03-29T20:22:04.273Z,68.12
2023-03-29T20:24:32.817Z,68.64
2023-03-29T20:26:59.640Z,68.56
2023-03-29T20:29:27.462Z,68.58
2023-03-29T20:31:54.271Z,68.63
2023-03-29T20:34:21.240Z,69.05
2023-03-29T20:36:48.877Z,69.21
2023-03-29T20:39:18.922Z,68.88
2023-03-29T20:41:49.275Z,69.09
2023-03-29T20:44:16.988Z,68.81
2023-03-29T20:46:54.597Z,68.91
2023-03-29T20:49:26.644Z,68.77
2023-03-29T20:51:59.022Z,69.01
2023-03-29T20:54:26.021Z,69.30
2023-03-29T20:56:55.151Z,69.50
2023-03-29T20:59:23.095Z,69.69
2023-03-29T21:01:50.561Z,69.84
2023-03-29T21:04:17.574Z,70.06
2023-03-29T21:06:46.009Z,69.90
2023-03-29T21:09:13.733Z,69.92
2023-03-29T21:11:40.975Z,69.97
2023-03-29T21:14:09.677Z,70.20
2023-03-29T21:16:36.904Z,70.22
2023-03-29T21:19:03.668Z,70.36
2023-03-29T21:21:30.533Z,70.76
2023-03-29T21:23:57.929Z,70.92
2023-03-29T21:26:24.681Z,70.84
2023-03-29T21:28:51.623Z,70.60
2023-03-29T21:31:18.491Z,70.78
2023-03-29T21:33:46.123Z,71.03
2023-03-29T21:36:13.150Z,70.93
2023-03-29T21:38:41.449Z,71.03
2023-03-29T21:41:12.186Z,71.46
2023-03-29T21:43:40.063Z,70.91
2023-03-29T21:46:07.273Z,71.30
2023-03-29T21:48:34.323Z,71.01
2023-03-29T21:51:01.627Z,71.23
2023-03-29T21:53:30.047Z,71.45
2023-03-29T21:55:57.066Z,71.45
2023-03-29T21:58:24.286Z,71.87
2023-03-29T22:00:51.557Z,71.60
2023-03-29T22:03:18.574Z,71.58
2023-03-29T22:06:05.525Z,71.74
2023-03-29T22:08:32.885Z,71.64
2023-03-29T22:11:08.647Z,72.09
2023-03-29T22:13:41.558Z,72.10
2023-03-29T22:16:17.006Z,72.41
2023-03-29T22:18:44.622Z,72.00
2023-03-29T22:21:13.873Z,72.37
2023-03-29T22:23:45.515Z,72.01
2023-03-29T22:26:13.127Z,72.44
2023-03-29T22:28:40.479Z,72.23
2023-03-29T22:31:08.786Z,72.36
2023-03-29T22:33:36.077Z,72.57
2023-03-29T22:36:12.304Z,72.18
2023-03-29T22:38:39.280Z,72.35
2023-03-29T22:41:06.602Z,72.23
2023-03-29T22:43:33.467Z,72.47
2023-03-29T22:46:00.523Z,72.42
2023-03-29T22:48:27.809Z,72.41
2023-03-29T22:50:54.721Z,72.45
2023-03-29T22:53:21.730Z,72.12
2023-03-29T22:55:48.475Z,72.31
2023-03-29T22:58:15.381Z,72.03
2023-03-29T23:00:42.211Z,72.28
2023-03-29T23:03:09.136Z,72.21
2023-03-29T23:05:36.541Z,72.50
2023-03-29T23:08:03.374Z,72.44
2023-03-29T23:10:30.689Z,72.49
2023-03-29T23:13:08.825Z,72.67
2023-03-29T23:15:42.884Z,72.68
2023-03-29T23:18:13.250Z,72.35
2023-03-29T23:20:40.877Z,72.60
2023-03-29T23:23:07.768Z,72.24
2023-03-29T23:25:34.721Z,72.30
2023-03-29T23:28:03.002Z,72.57
2023-03-29T23:30:32.488Z,72.44
2023-03-29T23:33:00.312Z,72.48
2023-03-29T23:35:27.164Z,72.31
2023-03-29T23:37:54.563Z,72.72
2023-03-29T23:40:21.691Z,72.65
2023-03-29T23:42:49.124Z,72.41
2023-03-29T23:45:18.386Z,72.64
2023-03-29T23:47:45.614Z,72.25
2023-03-29T23:50:13.771Z,72.80
2023-03-29T23:52:51.787Z,72.69
2023-03-29T23:55:19.048Z,72.68
2023-03-29T23:57:45.855Z,72.86
